Time;durP1;ratioP1;P1;durP2;ratioP2;P2;SDS_P1;SDS_P2;PMS_P1;PMS_P2;Temp;Humidity;BMP_temperature;BMP_pressure;BME280_temperature;BME280_humidity;BME280_pressure;Samples;Min_cycle;Max_cycle;Signal;HPM_P1;HPM_P2
2023/02/28 00:00:28;;;;;;;14.80;10.75;;;1.80;99.90;;;;;;5033602;28;20022;-81
2023/02/28 00:02:54;;;;;;;14.85;10.90;;;1.90;99.90;;;;;;5033662;28;20072;-80
2023/02/28 00:05:22;;;;;;;19.02;11.15;;;2.00;99.90;;;;;;5033593;28;20045;-80
2023/02/28 00:07:49;;;;;;;17.27;11.73;;;2.30;99.90;;;;;;5033577;28;20129;-80
2023/02/28 00:10:20;;;;;;;16.45;11.75;;;1.90;99.90;;;;;;5033286;28;20032;-81
2023/02/28 00:12:47;;;;;;;14.52;10.75;;;2.50;99.90;;;;;;5033523;28;20375;-80
2023/02/28 00:15:12;;;;;;;14.50;10.00;;;1.90;99.90;;;;;;5033310;28;20056;-81
2023/02/28 00:17:38;;;;;;;14.43;11.82;;;1.70;99.90;;;;;;5015567;28;20494;-80
2023/02/28 00:20:15;;;;;;;14.80;12.02;;;2.00;99.90;;;;;;5033356;28;20024;-81
2023/02/28 00:22:43;;;;;;;19.08;14.80;;;2.10;99.90;;;;;;5033326;28;20033;-81
2023/02/28 00:25:12;;;;;;;16.35;11.75;;;2.00;99.90;;;;;;5032926;28;20033;-81
2023/02/28 00:27:39;;;;;;;13.52;11.35;;;2.20;99.90;;;;;;5033112;28;20103;-81
2023/02/28 00:30:07;;;;;;;15.25;11.30;;;1.60;99.90;;;;;;5033092;28;20460;-80
2023/02/28 00:32:34;;;;;;;15.30;11.68;;;1.60;99.90;;;;;;5033160;28;20548;-81
2023/02/28 00:35:00;;;;;;;17.10;12.65;;;1.70;99.90;;;;;;5033033;28;20033;-80
2023/02/28 00:37:25;;;;;;;13.98;11.10;;;2.00;99.90;;;;;;5033150;28;20098;-80
2023/02/28 00:39:51;;;;;;;17.20;12.95;;;2.00;99.90;;;;;;5031700;28;20478;-80
2023/02/28 00:42:17;;;;;;;16.77;12.48;;;1.80;99.90;;;;;;5032947;28;20433;-80
2023/02/28 00:44:42;;;;;;;18.70;15.40;;;2.20;99.90;;;;;;5032973;28;20052;-81
2023/02/28 00:47:08;;;;;;;20.38;16.48;;;2.30;99.90;;;;;;5015304;28;20026;-80
2023/02/28 00:49:34;;;;;;;15.45;13.68;;;2.30;99.90;;;;;;5032822;28;20083;-81
2023/02/28 00:51:59;;;;;;;16.55;13.02;;;2.40;99.90;;;;;;5032923;28;20029;-80
2023/02/28 00:54:25;;;;;;;13.32;10.93;;;2.60;99.90;;;;;;5032376;28;20378;-80
2023/02/28 00:56:50;;;;;;;16.13;11.20;;;2.00;99.90;;;;;;5005762;28;20041;-81
2023/02/28 00:59:17;;;;;;;13.73;11.10;;;1.90;99.90;;;;;;5013106;28;20117;-80
2023/02/28 01:01:43;;;;;;;12.32;10.90;;;2.00;99.90;;;;;;5012944;28;20021;-81
2023/02/28 01:04:09;;;;;;;14.32;11.00;;;2.00;99.90;;;;;;5013009;28;20030;-80
2023/02/28 01:06:36;;;;;;;13.02;10.85;;;2.00;99.90;;;;;;5012996;28;20026;-80
2023/02/28 01:09:03;;;;;;;13.88;11.02;;;2.60;99.90;;;;;;5012576;28;20026;-80
2023/02/28 01:11:29;;;;;;;12.45;10.63;;;2.10;99.90;;;;;;5012979;28;20026;-80
2023/02/28 01:13:55;;;;;;;12.43;10.55;;;2.00;99.90;;;;;;5012932;28;20026;-80
2023/02/28 01:16:20;;;;;;;14.15;11.27;;;2.50;99.90;;;;;;5012803;28;20026;-80
2023/02/28 01:18:46;;;;;;;12.23;9.63;;;2.10;99.90;;;;;;5012778;28;20022;-80
2023/02/28 01:21:14;;;;;;;12.70;10.88;;;2.20;99.90;;;;;;5012835;28;20410;-81
2023/02/28 01:23:41;;;;;;;11.85;10.05;;;2.80;99.90;;;;;;5012424;28;20478;-80
2023/02/28 01:26:14;;;;;;;9.88;8.35;;;2.90;99.90;;;;;;5012803;28;20041;-81
2023/02/28 01:28:40;;;;;;;9.98;7.93;;;2.60;99.90;;;;;;5012647;28;20471;-80
2023/02/28 01:31:08;;;;;;;8.95;8.05;;;2.90;99.90;;;;;;5012674;28;20462;-80
2023/02/28 01:33:34;;;;;;;12.45;10.32;;;2.90;99.90;;;;;;5012754;28;20076;-80
2023/02/28 01:36:20;;;;;;;13.55;10.82;;;2.40;99.90;;;;;;4995011;28;20030;-81
2023/02/28 01:38:47;;;;;;;13.07;10.60;;;2.50;99.90;;;;;;5011728;28;20034;-81
2023/02/28 01:41:19;;;;;;;12.40;10.27;;;2.20;99.90;;;;;;5012609;28;20025;-81
2023/02/28 01:43:44;;;;;;;9.13;7.82;;;2.50;99.90;;;;;;5012512;28;20041;-80
2023/02/28 01:46:12;;;;;;;10.38;7.80;;;2.90;99.90;;;;;;5012713;28;20440;-81
2023/02/28 01:48:46;;;;;;;8.57;7.65;;;2.70;99.90;;;;;;5012492;28;20081;-80
2023/02/28 01:51:20;;;;;;;11.48;7.95;;;2.60;99.90;;;;;;5013252;28;20080;-81
2023/02/28 01:53:51;;;;;;;10.35;7.95;;;3.10;99.90;;;;;;5016379;28;20109;-80
2023/02/28 01:56:22;;;;;;;10.10;7.68;;;3.10;99.90;;;;;;5020030;28;20053;-81
2023/02/28 01:58:52;;;;;;;8.40;7.57;;;3.10;99.90;;;;;;5036045;28;20025;-80
2023/02/28 02:01:23;;;;;;;10.40;8.13;;;2.60;99.90;;;;;;5036088;28;20112;-80
2023/02/28 02:03:57;;;;;;;10.13;8.13;;;3.10;99.90;;;;;;5035692;28;20035;-80
2023/02/28 02:06:27;;;;;;;8.55;7.45;;;3.20;99.90;;;;;;5035553;28;20486;-81
2023/02/28 02:08:53;;;;;;;8.85;7.53;;;2.60;99.90;;;;;;5035720;28;20021;-80
2023/02/28 02:11:21;;;;;;;10.38;8.07;;;3.10;99.90;;;;;;5036085;28;20049;-80
2023/02/28 02:14:15;;;;;;;9.10;7.57;;;3.20;99.90;;;;;;5035378;28;20094;-80
2023/02/28 02:16:40;;;;;;;10.20;7.93;;;2.50;99.90;;;;;;5035656;28;20040;-81
2023/02/28 02:19:06;;;;;;;8.95;7.53;;;2.50;99.90;;;;;;5035574;28;20375;-80
2023/02/28 02:22:02;;;;;;;9.40;8.20;;;3.00;99.90;;;;;;5035298;28;20052;-81
2023/02/28 02:24:58;;;;;;;11.90;7.80;;;2.80;99.90;;;;;;5035409;28;20071;-81
2023/02/28 02:27:42;;;;;;;8.50;7.53;;;2.60;99.90;;;;;;5035398;28;20482;-80
2023/02/28 02:30:10;;;;;;;9.82;7.85;;;2.70;99.90;;;;;;5035314;28;20064;-81
2023/02/28 02:32:57;;;;;;;9.50;8.15;;;2.60;99.90;;;;;;5035427;28;20030;-80
2023/02/28 02:35:39;;;;;;;9.27;7.10;;;2.60;99.90;;;;;;5035028;28;20025;-80
2023/02/28 02:38:41;;;;;;;8.63;7.35;;;2.60;99.90;;;;;;5035376;28;20022;-81
2023/02/28 02:41:34;;;;;;;10.13;8.00;;;2.50;99.90;;;;;;4993638;28;20037;-81
2023/02/28 02:44:14;;;;;;;10.23;7.82;;;2.50;99.90;;;;;;4993580;28;20034;-80
2023/02/28 02:46:44;;;;;;;9.57;8.25;;;2.60;99.90;;;;;;4993873;28;20067;-80
2023/02/28 02:49:17;;;;;;;8.43;7.05;;;2.80;99.90;;;;;;4993567;28;20045;-81
2023/02/28 02:51:44;;;;;;;10.32;7.90;;;2.60;99.90;;;;;;4993549;28;20039;-81
2023/02/28 02:54:32;;;;;;;9.43;7.95;;;2.60;99.90;;;;;;4993585;28;20034;-81
2023/02/28 02:57:03;;;;;;;8.93;8.02;;;2.50;99.90;;;;;;4992674;28;20038;-80
2023/02/28 02:59:30;;;;;;;7.97;7.10;;;3.00;99.90;;;;;;4993377;28;20034;-81
2023/02/28 03:02:03;;;;;;;10.05;8.00;;;2.70;99.90;;;;;;4993403;28;20030;-81
2023/02/28 03:04:33;;;;;;;11.70;8.23;;;2.90;99.90;;;;;;4991946;28;20105;-80
2023/02/28 03:06:59;;;;;;;11.23;8.43;;;2.80;99.90;;;;;;4993280;28;20079;-80
2023/02/28 03:09:26;;;;;;;10.18;8.25;;;2.30;99.90;;;;;;4993099;28;20022;-81
2023/02/28 03:11:55;;;;;;;10.23;7.70;;;2.80;99.90;;;;;;4993206;28;20125;-80
2023/02/28 03:14:51;;;;;;;9.88;7.90;;;2.40;99.90;;;;;;4993135;28;20025;-80
2023/02/28 03:17:53;;;;;;;9.38;7.75;;;2.70;99.90;;;;;;5003013;28;20045;-80
2023/02/28 03:20:30;;;;;;;9.55;7.75;;;2.40;99.90;;;;;;5014370;28;20026;-81
2023/02/28 03:23:15;;;;;;;10.20;8.18;;;3.00;99.90;;;;;;5014739;28;20021;-81
2023/02/28 03:26:07;;;;;;;9.00;8.05;;;2.90;99.90;;;;;;5014502;28;20132;-80
2023/02/28 03:28:48;;;;;;;9.52;8.15;;;2.60;99.90;;;;;;5014438;28;20026;-81
2023/02/28 03:31:26;;;;;;;12.52;7.90;;;2.50;99.90;;;;;;5014534;28;20041;-81
2023/02/28 03:33:58;;;;;;;10.18;8.05;;;2.90;99.90;;;;;;5014140;28;20445;-81
2023/02/28 03:36:36;;;;;;;10.93;8.30;;;2.40;99.90;;;;;;5014509;28;20062;-80
2023/02/28 03:39:08;;;;;;;9.25;8.02;;;2.30;99.90;;;;;;5014314;28;20034;-81
2023/02/28 03:41:49;;;;;;;9.93;7.80;;;3.00;99.90;;;;;;5014339;28;20026;-81
2023/02/28 03:44:39;;;;;;;10.02;8.10;;;2.30;99.90;;;;;;5014205;28;20038;-81
2023/02/28 03:47:14;;;;;;;11.07;8.32;;;2.40;99.90;;;;;;5014178;28;20022;-81
2023/02/28 03:49:49;;;;;;;10.15;7.93;;;2.30;99.90;;;;;;5014085;28;20524;-81
2023/02/28 03:52:18;;;;;;;10.73;8.35;;;2.60;99.90;;;;;;5013974;28;20026;-81
2023/02/28 03:54:55;;;;;;;9.27;7.70;;;2.30;99.90;;;;;;5013759;28;20483;-81
2023/02/28 03:57:42;;;;;;;10.63;8.50;;;2.20;99.90;;;;;;5026927;28;20517;-80
2023/02/28 04:00:37;;;;;;;10.18;7.53;;;2.10;99.90;;;;;;5033716;28;20479;-81
2023/02/28 04:03:04;;;;;;;14.25;8.65;;;2.20;99.90;;;;;;5033426;28;20459;-80
2023/02/28 04:05:31;;;;;;;9.82;8.20;;;2.70;99.90;;;;;;5033427;28;20066;-81
2023/02/28 04:08:07;;;;;;;10.38;7.97;;;2.80;99.90;;;;;;5033693;28;20029;-81
2023/02/28 04:10:33;;;;;;;8.93;7.47;;;2.20;99.90;;;;;;5033412;28;20381;-81
2023/02/28 04:12:58;;;;;;;10.15;7.78;;;2.10;99.90;;;;;;5033493;28;20105;-81
2023/02/28 04:15:24;;;;;;;13.50;7.90;;;2.00;99.90;;;;;;5033241;28;20112;-80
2023/02/28 04:17:50;;;;;;;10.20;8.05;;;2.20;99.90;;;;;;5032937;28;20090;-81
2023/02/28 04:20:16;;;;;;;10.48;8.27;;;2.10;99.90;;;;;;5033390;28;20098;-81
2023/02/28 04:22:42;;;;;;;8.85;7.93;;;2.00;99.90;;;;;;5033346;28;20018;-80
2023/02/28 04:25:08;;;;;;;10.90;7.75;;;2.00;99.90;;;;;;5033150;28;20394;-81
2023/02/28 04:27:33;;;;;;;9.80;8.23;;;1.90;99.90;;;;;;5033161;28;20096;-81
2023/02/28 04:29:59;;;;;;;10.57;8.38;;;1.80;99.90;;;;;;5033178;28;20029;-81
2023/02/28 04:32:25;;;;;;;10.60;8.25;;;1.80;99.90;;;;;;5015198;28;20501;-81
2023/02/28 04:34:51;;;;;;;9.15;8.18;;;1.70;99.90;;;;;;5032984;28;20159;-81
2023/02/28 04:37:16;;;;;;;13.23;8.25;;;2.00;99.90;;;;;;5033139;28;20057;-81
2023/02/28 04:39:42;;;;;;;8.82;7.65;;;2.40;99.90;;;;;;5032937;28;20037;-80
2023/02/28 04:42:08;;;;;;;9.50;8.20;;;2.10;99.90;;;;;;5032949;28;20030;-80
2023/02/28 04:44:34;;;;;;;9.48;7.45;;;1.80;99.90;;;;;;5032926;28;20037;-80
2023/02/28 04:46:59;;;;;;;9.85;7.88;;;2.30;99.90;;;;;;5032624;28;20525;-80
2023/02/28 04:49:25;;;;;;;9.07;7.25;;;1.80;99.90;;;;;;5032843;28;20055;-81
2023/02/28 04:51:52;;;;;;;10.20;7.88;;;1.80;99.90;;;;;;5032930;28;20449;-81
2023/02/28 04:54:18;;;;;;;10.77;7.80;;;2.30;99.90;;;;;;5032783;28;20025;-80
2023/02/28 04:56:44;;;;;;;8.65;7.75;;;2.20;99.90;;;;;;5024156;28;20383;-81
2023/02/28 04:59:09;;;;;;;8.63;7.13;;;1.80;99.90;;;;;;5013128;28;20022;-81
2023/02/28 05:01:36;;;;;;;9.07;7.47;;;1.80;99.90;;;;;;5012678;28;20105;-81
2023/02/28 05:04:03;;;;;;;8.93;7.20;;;2.10;99.90;;;;;;5012873;28;20025;-81
2023/02/28 05:06:31;;;;;;;9.15;7.20;;;1.80;99.90;;;;;;5012892;28;20040;-81
2023/02/28 05:08:57;;;;;;;8.65;7.22;;;1.70;99.90;;;;;;4995321;28;20033;-80
2023/02/28 05:11:33;;;;;;;11.10;7.70;;;1.90;99.90;;;;;;5012985;28;20026;-81
2023/02/28 05:13:59;;;;;;;8.88;7.22;;;2.00;99.90;;;;;;5012959;28;20022;-81
2023/02/28 05:16:24;;;;;;;9.02;6.72;;;2.20;99.90;;;;;;4994919;28;20034;-80
2023/02/28 05:18:50;;;;;;;8.38;7.05;;;2.10;99.90;;;;;;5012733;28;20032;-80
2023/02/28 05:21:28;;;;;;;9.52;7.30;;;1.60;99.90;;;;;;5012768;28;20044;-81
2023/02/28 05:23:55;;;;;;;8.55;7.32;;;1.50;99.90;;;;;;5012786;28;20032;-80
2023/02/28 05:26:21;;;;;;;8.68;7.50;;;1.60;99.90;;;;;;5013832;28;20108;-80
2023/02/28 05:28:47;;;;;;;9.70;7.53;;;1.60;99.90;;;;;;5016511;28;20105;-80
2023/02/28 05:31:13;;;;;;;10.40;7.85;;;2.00;99.90;;;;;;5016741;28;20482;-80
2023/02/28 05:33:39;;;;;;;10.27;7.47;;;1.70;99.90;;;;;;5016796;28;20033;-81
2023/02/28 05:36:06;;;;;;;9.77;7.35;;;1.80;99.90;;;;;;5016784;28;20034;-81
2023/02/28 05:38:32;;;;;;;9.13;7.45;;;1.90;99.90;;;;;;5016630;28;20402;-81
2023/02/28 05:40:57;;;;;;;9.23;7.30;;;1.70;99.90;;;;;;4998864;28;20037;-80
2023/02/28 05:43:23;;;;;;;10.35;7.20;;;1.60;99.90;;;;;;5016250;28;20113;-81
2023/02/28 05:45:49;;;;;;;8.50;7.13;;;1.60;99.90;;;;;;5016521;28;20457;-81
2023/02/28 05:48:14;;;;;;;9.43;7.25;;;2.30;99.90;;;;;;5016430;28;20029;-81
2023/02/28 05:50:42;;;;;;;11.15;7.75;;;1.70;99.90;;;;;;4999024;28;20026;-81
2023/02/28 05:53:08;;;;;;;10.20;8.10;;;1.60;99.90;;;;;;5016507;28;20513;-81
2023/02/28 05:55:35;;;;;;;10.55;7.57;;;2.00;99.90;;;;;;5015994;28;20026;-80
2023/02/28 05:58:01;;;;;;;13.25;8.75;;;1.60;99.90;;;;;;5034293;28;20030;-80
2023/02/28 06:00:27;;;;;;;17.45;10.73;;;1.60;99.90;;;;;;5036043;28;20099;-80
2023/02/28 06:02:56;;;;;;;9.88;7.75;;;1.60;99.90;;;;;;5036039;28;20033;-81
2023/02/28 06:05:22;;;;;;;9.80;7.22;;;2.30;99.90;;;;;;5035795;28;20033;-81
2023/02/28 06:07:47;;;;;;;21.15;14.10;;;1.60;99.90;;;;;;5035893;28;20037;-80
2023/02/28 06:10:14;;;;;;;9.55;7.22;;;1.50;99.90;;;;;;5035781;28;20029;-81
2023/02/28 06:12:41;;;;;;;11.93;7.93;;;1.80;99.90;;;;;;5035640;28;20041;-81
2023/02/28 06:15:11;;;;;;;8.07;7.03;;;1.50;99.90;;;;;;5035675;28;20029;-81
2023/02/28 06:17:37;;;;;;;11.40;9.05;;;1.50;99.90;;;;;;5035614;28;20068;-80
2023/02/28 06:20:04;;;;;;;13.13;10.00;;;1.40;99.90;;;;;;5035636;28;20033;-81
2023/02/28 06:22:29;;;;;;;10.25;8.27;;;1.40;99.90;;;;;;5035606;28;20437;-81
2023/02/28 06:24:56;;;;;;;8.95;7.78;;;1.40;99.90;;;;;;5035461;28;20030;-81
2023/02/28 06:27:22;;;;;;;14.35;9.02;;;1.90;99.90;;;;;;5035012;28;20394;-81
2023/02/28 06:29:48;;;;;;;15.93;11.05;;;1.40;99.90;;;;;;5035065;28;20029;-81
2023/02/28 06:32:13;;;;;;;16.15;11.50;;;1.30;99.90;;;;;;5035366;28;20036;-81
2023/02/28 06:34:39;;;;;;;13.63;8.35;;;1.40;99.90;;;;;;5035617;28;20037;-81
2023/02/28 06:37:05;;;;;;;11.35;7.88;;;2.00;99.90;;;;;;5035236;28;20044;-81
2023/02/28 06:39:31;;;;;;;10.07;7.72;;;1.90;99.90;;;;;;5035185;28;20041;-81
2023/02/28 06:41:57;;;;;;;11.35;8.05;;;1.40;99.90;;;;;;5034810;28;20021;-80
2023/02/28 06:44:23;;;;;;;9.23;7.60;;;1.80;99.90;;;;;;5035132;28;20025;-81
2023/02/28 06:46:49;;;;;;;9.05;7.22;;;1.60;99.90;;;;;;5035181;28;20030;-81
2023/02/28 06:49:15;;;;;;;8.60;7.43;;;1.60;99.90;;;;;;5035033;28;20030;-81
2023/02/28 06:51:44;;;;;;;11.48;7.22;;;1.60;99.90;;;;;;5034991;28;20107;-80
2023/02/28 06:54:11;;;;;;;12.25;7.25;;;1.50;99.90;;;;;;5034998;28;20091;-80
2023/02/28 06:56:36;;;;;;;9.57;6.40;;;1.50;99.90;;;;;;5027234;28;20045;-81
2023/02/28 06:59:03;;;;;;;8.63;6.43;;;1.80;99.90;;;;;;5015140;28;20117;-81
2023/02/28 07:01:29;;;;;;;7.82;6.80;;;2.10;99.90;;;;;;5015245;28;20026;-81
2023/02/28 07:03:55;;;;;;;9.32;6.80;;;1.60;99.90;;;;;;5015103;28;20103;-81
2023/02/28 07:06:24;;;;;;;8.10;6.35;;;1.70;99.90;;;;;;5015130;28;20021;-81
2023/02/28 07:08:53;;;;;;;9.77;6.88;;;2.20;99.90;;;;;;5015073;28;20022;-81
2023/02/28 07:11:22;;;;;;;9.65;6.60;;;1.90;99.90;;;;;;5014637;28;20033;-81
2023/02/28 07:13:48;;;;;;;9.60;6.68;;;1.80;99.90;;;;;;5014797;28;20026;-80
2023/02/28 07:16:14;;;;;;;7.88;6.30;;;1.80;99.90;;;;;;4997238;28;20034;-81
2023/02/28 07:18:39;;;;;;;8.25;6.78;;;2.20;99.90;;;;;;5014829;28;20084;-81
2023/02/28 07:21:07;;;;;;;7.22;5.93;;;1.50;99.90;;;;;;5014937;28;20082;-81
2023/02/28 07:23:34;;;;;;;8.55;6.78;;;1.70;99.90;;;;;;5014719;28;20026;-81
2023/02/28 07:25:59;;;;;;;8.93;6.53;;;1.60;99.90;;;;;;5014357;28;20044;-81
2023/02/28 07:28:25;;;;;;;10.43;7.13;;;1.70;99.90;;;;;;5014411;28;20025;-80
2023/02/28 07:30:51;;;;;;;9.90;6.85;;;1.80;99.90;;;;;;5014645;28;20436;-81
2023/02/28 07:33:16;;;;;;;13.57;7.47;;;1.70;99.90;;;;;;5014661;28;20033;-80
2023/02/28 07:35:42;;;;;;;7.45;6.70;;;1.60;99.90;;;;;;5014356;28;20026;-81
2023/02/28 07:38:08;;;;;;;9.00;6.72;;;1.80;99.90;;;;;;5014411;28;20025;-81
2023/02/28 07:40:35;;;;;;;10.98;7.50;;;1.70;99.90;;;;;;5014129;28;20076;-81
2023/02/28 07:43:02;;;;;;;11.23;7.35;;;2.30;99.90;;;;;;4996877;28;20022;-80
2023/02/28 07:45:28;;;;;;;10.00;7.00;;;1.60;99.90;;;;;;5014267;28;20120;-81
2023/02/28 07:47:55;;;;;;;10.23;7.75;;;2.20;99.90;;;;;;5014169;28;20032;-80
2023/02/28 07:50:21;;;;;;;11.20;8.30;;;1.80;99.90;;;;;;5013733;28;20090;-80
2023/02/28 07:52:47;;;;;;;11.38;7.97;;;1.80;99.90;;;;;;5014428;28;20094;-81
2023/02/28 07:55:13;;;;;;;9.77;7.00;;;2.00;99.90;;;;;;5013570;28;20487;-81
2023/02/28 07:57:40;;;;;;;9.57;7.20;;;2.20;99.90;;;;;;5029194;28;20465;-81
2023/02/28 08:00:09;;;;;;;8.63;7.60;;;2.10;99.90;;;;;;5033632;28;20083;-81
2023/02/28 08:02:35;;;;;;;10.57;6.93;;;2.10;99.90;;;;;;5033762;28;20442;-80
2023/02/28 08:05:01;;;;;;;8.07;6.50;;;2.40;99.90;;;;;;5033558;28;20038;-81
2023/02/28 08:07:27;;;;;;;8.88;6.55;;;2.30;99.90;;;;;;5033575;28;20521;-81
2023/02/28 08:09:53;;;;;;;8.45;6.30;;;2.90;99.90;;;;;;5033177;28;20070;-81
2023/02/28 08:12:19;;;;;;;7.97;6.10;;;3.20;99.90;;;;;;5033476;28;20410;-81
2023/02/28 08:14:44;;;;;;;11.05;6.63;;;2.40;99.90;;;;;;5033443;28;20033;-81
2023/02/28 08:17:10;;;;;;;8.48;6.07;;;3.00;99.90;;;;;;5033439;28;20393;-81
2023/02/28 08:19:36;;;;;;;9.25;6.15;;;3.00;99.90;;;;;;5033305;28;20025;-80
2023/02/28 08:22:02;;;;;;;8.90;6.75;;;2.60;99.90;;;;;;5033317;28;20111;-81
2023/02/28 08:24:28;;;;;;;8.02;6.15;;;2.70;99.90;;;;;;5032928;28;20033;-80
2023/02/28 08:26:55;;;;;;;10.48;6.50;;;2.80;99.90;;;;;;5033205;28;20520;-80
2023/02/28 08:29:20;;;;;;;7.93;6.03;;;2.60;99.90;;;;;;5033189;28;20471;-81
2023/02/28 08:31:46;;;;;;;7.45;5.65;;;3.00;99.90;;;;;;5033048;28;20033;-80
2023/02/28 08:34:14;;;;;;;7.50;6.53;;;2.90;99.90;;;;;;5033221;28;20104;-80
2023/02/28 08:36:40;;;;;;;9.63;6.38;;;3.40;99.90;;;;;;5033194;28;20029;-81
2023/02/28 08:39:07;;;;;;;7.88;5.95;;;3.50;99.90;;;;;;5032637;28;20025;-81
2023/02/28 08:41:33;;;;;;;9.43;5.95;;;3.50;99.90;;;;;;5033061;28;20036;-81
2023/02/28 08:43:59;;;;;;;7.28;6.28;;;3.60;99.90;;;;;;5015314;28;20029;-81
2023/02/28 08:46:26;;;;;;;9.43;6.05;;;3.30;99.90;;;;;;5033134;28;20025;-81
2023/02/28 08:48:53;;;;;;;10.75;6.63;;;3.50;99.90;;;;;;5032853;28;20022;-81
2023/02/28 08:51:25;;;;;;;8.65;6.07;;;3.50;99.90;;;;;;5032821;28;20026;-81
2023/02/28 08:53:52;;;;;;;11.13;6.00;;;3.70;99.90;;;;;;5032517;28;20029;-80
2023/02/28 08:56:19;;;;;;;7.28;6.10;;;3.40;99.90;;;;;;5027702;28;20045;-80
2023/02/28 08:58:46;;;;;;;7.57;6.43;;;3.40;99.90;;;;;;5013103;28;20018;-81
2023/02/28 09:01:20;;;;;;;10.90;6.53;;;3.50;99.90;;;;;;5012237;28;20034;-80
2023/02/28 09:03:48;;;;;;;9.20;6.68;;;3.60;99.90;;;;;;5012963;28;20033;-80
2023/02/28 09:06:14;;;;;;;8.13;6.57;;;4.10;99.90;;;;;;5012425;28;20033;-80
2023/02/28 09:08:41;;;;;;;7.97;6.32;;;3.80;99.90;;;;;;5012966;28;20026;-81
2023/02/28 09:11:07;;;;;;;8.77;6.10;;;4.10;99.90;;;;;;5012957;28;20441;-81
2023/02/28 09:13:33;;;;;;;8.90;6.45;;;3.90;99.90;;;;;;5012918;28;20030;-80
2023/02/28 09:16:00;;;;;;;8.60;5.75;;;4.30;99.90;;;;;;5012843;28;20106;-81
2023/02/28 09:18:26;;;;;;;7.35;5.82;;;4.00;99.90;;;;;;5012666;28;20446;-81
2023/02/28 09:20:52;;;;;;;6.32;5.68;;;4.10;99.90;;;;;;5012468;28;20475;-81
2023/02/28 09:23:18;;;;;;;5.97;5.35;;;4.30;99.90;;;;;;5012889;28;20057;-80
2023/02/28 09:25:52;;;;;;;9.35;5.72;;;4.10;99.90;;;;;;5012761;28;20030;-81
2023/02/28 09:28:19;;;;;;;9.38;6.03;;;4.40;99.90;;;;;;5012712;28;20026;-81
2023/02/28 09:30:46;;;;;;;13.50;6.68;;;4.80;99.90;;;;;;5012900;28;20036;-81
2023/02/28 09:33:12;;;;;;;10.13;5.60;;;5.50;99.90;;;;;;5012704;28;20022;-81
2023/02/28 09:35:38;;;;;;;8.95;6.45;;;5.80;99.90;;;;;;5012379;28;20058;-81
2023/02/28 09:38:04;;;;;;;7.25;5.68;;;5.70;99.90;;;;;;5012643;28;20127;-80
2023/02/28 09:40:31;;;;;;;8.45;6.55;;;5.00;99.90;;;;;;4995052;28;20405;-81
2023/02/28 09:42:59;;;;;;;7.05;5.78;;;5.50;99.90;;;;;;5012532;28;20093;-81
2023/02/28 09:45:33;;;;;;;6.93;5.95;;;5.80;99.90;;;;;;5012586;28;20251;-81
2023/02/28 09:48:04;;;;;;;8.07;5.85;;;5.50;99.90;;;;;;5012468;28;20402;-81
2023/02/28 09:50:38;;;;;;;6.75;6.03;;;5.60;99.90;;;;;;5012078;28;20498;-81
2023/02/28 09:53:13;;;;;;;7.40;5.63;;;5.70;99.90;;;;;;5012604;28;20486;-81
2023/02/28 09:56:04;;;;;;;8.02;5.75;;;6.00;99.90;;;;;;5012156;28;20029;-81
2023/02/28 09:58:40;;;;;;;8.40;5.60;;;6.80;99.90;;;;;;5003257;28;20074;-81
2023/02/28 10:01:29;;;;;;;8.32;5.90;;;7.00;99.90;;;;;;5012414;28;20030;-81
2023/02/28 10:04:33;;;;;;;6.72;5.80;;;7.50;99.90;;;;;;5012320;28;20025;-81
2023/02/28 10:07:04;;;;;;;8.73;5.75;;;7.20;99.90;;;;;;4954847;28;20531;-80
2023/02/28 10:09:33;;;;;;;8.75;5.75;;;7.30;99.90;;;;;;4971131;28;20038;-81
2023/02/28 10:12:06;;;;;;;7.13;5.88;;;7.30;99.90;;;;;;4971679;28;20039;-80
2023/02/28 10:14:34;;;;;;;7.70;6.18;;;7.70;99.90;;;;;;4974791;28;20042;-81
2023/02/28 10:17:14;;;;;;;6.70;5.32;;;7.90;99.90;;;;;;4974715;28;20043;-81
2023/02/28 10:19:51;;;;;;;6.03;5.30;;;7.60;99.90;;;;;;4974177;28;20146;-80
2023/02/28 10:22:26;;;;;;;6.30;5.70;;;7.20;99.90;;;;;;4974732;28;20472;-81
2023/02/28 10:24:54;;;;;;;7.93;5.80;;;7.50;99.90;;;;;;4974448;28;20043;-81
2023/02/28 10:27:25;;;;;;;7.60;6.47;;;7.10;99.90;;;;;;4974519;28;20048;-81
2023/02/28 10:29:53;;;;;;;8.45;6.35;;;7.10;99.90;;;;;;4974501;28;20093;-81
2023/02/28 10:32:27;;;;;;;7.75;5.82;;;7.50;99.90;;;;;;4974427;28;20033;-81
2023/02/28 10:35:23;;;;;;;7.70;5.53;;;7.80;99.90;;;;;;4974039;28;20026;-81
2023/02/28 10:37:55;;;;;;;7.18;5.80;;;7.40;99.90;;;;;;4971047;28;20094;-81
2023/02/28 10:40:21;;;;;;;8.93;5.93;;;7.30;99.90;;;;;;4974204;28;20055;-81
2023/02/28 10:43:04;;;;;;;7.93;5.57;;;7.60;99.90;;;;;;4981375;28;20034;-81
2023/02/28 10:45:36;;;;;;;7.00;6.30;;;7.40;99.90;;;;;;5015297;28;20030;-81
2023/02/28 10:48:10;;;;;;;6.90;5.95;;;8.10;99.90;;;;;;5015074;28;20030;-81
2023/02/28 10:50:51;;;;;;;7.90;6.07;;;8.10;99.90;;;;;;5015309;28;20033;-81
2023/02/28 10:53:32;;;;;;;6.03;5.43;;;8.40;99.90;;;;;;5015325;28;20029;-81
2023/02/28 10:56:06;;;;;;;6.82;5.82;;;8.00;99.90;;;;;;5024097;28;20103;-81
2023/02/28 10:58:41;;;;;;;7.07;5.97;;;8.40;99.90;;;;;;5015171;28;20037;-81
2023/02/28 11:01:17;;;;;;;7.60;5.93;;;8.60;99.90;;;;;;5015200;28;20030;-81
2023/02/28 11:03:43;;;;;;;6.57;5.87;;;8.60;99.90;;;;;;5014663;28;20030;-81
2023/02/28 11:06:32;;;;;;;7.30;6.18;;;9.20;99.90;;;;;;5015088;28;20234;-81
2023/02/28 11:09:02;;;;;;;6.78;5.95;;;8.90;99.90;;;;;;5014917;28;20030;-81
2023/02/28 11:11:31;;;;;;;7.07;6.07;;;8.70;99.90;;;;;;5014978;28;20034;-81
2023/02/28 11:14:03;;;;;;;7.13;6.32;;;8.80;99.90;;;;;;5014945;28;20119;-81
2023/02/28 11:16:37;;;;;;;7.20;6.50;;;10.00;99.90;;;;;;5014877;28;20038;-81
2023/02/28 11:19:06;;;;;;;7.32;6.68;;;10.60;99.90;;;;;;5014364;28;20034;-81
2023/02/28 11:21:39;;;;;;;7.50;6.80;;;10.50;99.90;;;;;;5014896;28;20022;-81
2023/02/28 11:24:13;;;;;;;7.05;6.35;;;11.10;99.90;;;;;;5013742;28;20026;-81
2023/02/28 11:26:45;;;;;;;7.60;6.80;;;11.60;99.90;;;;;;5014727;28;20034;-81
2023/02/28 11:29:34;;;;;;;6.72;6.18;;;12.00;99.90;;;;;;5014588;28;20505;-81
2023/02/28 11:32:06;;;;;;;7.10;6.47;;;11.20;99.90;;;;;;5014249;28;20026;-81
2023/02/28 11:34:32;;;;;;;8.10;6.82;;;11.20;99.90;;;;;;5014400;28;20038;-81
2023/02/28 11:37:00;;;;;;;7.82;7.13;;;10.90;99.90;;;;;;5014507;28;20034;-81
2023/02/28 11:39:26;;;;;;;7.85;7.10;;;10.00;99.90;;;;;;5014364;28;20022;-81
2023/02/28 11:41:57;;;;;;;7.90;7.20;;;9.80;99.90;;;;;;5014421;28;20104;-81
2023/02/28 11:44:31;;;;;;;8.70;7.90;;;9.10;99.90;;;;;;5014145;28;20029;-81
2023/02/28 11:47:06;;;;;;;8.43;7.55;;;9.30;99.90;;;;;;5013664;28;20073;-81
2023/02/28 11:49:47;;;;;;;8.10;7.35;;;9.10;99.90;;;;;;5014241;28;20478;-81
2023/02/28 11:52:35;;;;;;;8.52;7.50;;;9.20;99.90;;;;;;4996523;28;20081;-81
2023/02/28 11:55:17;;;;;;;8.25;7.45;;;8.70;99.90;;;;;;4996275;28;20104;-81
2023/02/28 11:57:50;;;;;;;9.35;7.53;;;8.80;99.90;;;;;;5029480;28;20114;-81
2023/02/28 12:00:34;;;;;;;8.68;7.00;;;8.00;99.90;;;;;;5033501;28;20025;-81
2023/02/28 12:03:16;;;;;;;8.65;6.60;;;8.70;99.90;;;;;;5033687;28;20025;-81
2023/02/28 12:05:48;;;;;;;8.80;7.55;;;9.00;99.90;;;;;;5033635;28;20029;-81
2023/02/28 12:08:45;;;;;;;7.57;6.82;;;8.80;99.90;;;;;;5033540;28;20029;-81
2023/02/28 12:11:28;;;;;;;8.65;7.10;;;8.60;99.90;;;;;;5033647;28;20025;-81
2023/02/28 12:14:33;;;;;;;7.30;6.63;;;8.40;99.90;;;;;;5033632;28;20044;-81
2023/02/28 12:17:13;;;;;;;8.32;6.88;;;8.60;99.90;;;;;;5033192;28;20033;-81
2023/02/28 12:19:48;;;;;;;7.28;6.55;;;7.90;99.90;;;;;;5033283;28;20056;-81
2023/02/28 12:22:29;;;;;;;7.60;6.80;;;8.10;99.90;;;;;;5033335;28;20021;-81
2023/02/28 12:25:07;;;;;;;7.70;6.90;;;8.40;99.90;;;;;;5033262;28;20041;-81
2023/02/28 12:27:44;;;;;;;8.02;7.28;;;8.30;99.90;;;;;;5033256;28;20028;-81
2023/02/28 12:30:19;;;;;;;8.75;7.95;;;7.60;99.90;;;;;;5032894;28;20029;-81
2023/02/28 12:32:56;;;;;;;8.30;7.35;;;7.80;99.90;;;;;;5033177;28;20517;-80
2023/02/28 12:35:28;;;;;;;7.80;7.03;;;8.10;99.90;;;;;;5032962;28;20017;-81
2023/02/28 12:38:03;;;;;;;9.18;8.27;;;8.00;99.90;;;;;;5033054;28;20026;-81
2023/02/28 12:40:45;;;;;;;8.52;7.38;;;7.50;99.90;;;;;;5033099;28;20053;-81
2023/02/28 12:43:14;;;;;;;10.63;9.55;;;7.90;99.90;;;;;;5033000;28;20032;-81
2023/02/28 12:45:51;;;;;;;7.85;6.97;;;7.70;99.90;;;;;;5014850;28;20061;-81
2023/02/28 12:48:33;;;;;;;8.25;7.40;;;8.00;99.90;;;;;;5032793;28;20164;-81
2023/02/28 12:51:00;;;;;;;9.43;7.90;;;7.40;99.90;;;;;;5032908;28;20493;-80
2023/02/28 12:53:54;;;;;;;9.30;7.65;;;7.60;99.90;;;;;;5032949;28;20036;-81
2023/02/28 12:57:05;;;;;;;8.77;7.90;;;7.50;99.90;;;;;;5027544;28;20048;-81
2023/02/28 12:59:54;;;;;;;7.88;7.18;;;7.80;99.90;;;;;;5012659;28;20034;-81
2023/02/28 13:02:39;;;;;;;8.50;7.63;;;8.10;99.90;;;;;;5013115;28;20037;-80
2023/02/28 13:05:33;;;;;;;9.75;8.75;;;7.90;99.90;;;;;;5012919;28;20034;-80
2023/02/28 13:08:04;;;;;;;11.15;8.15;;;7.70;99.90;;;;;;5012830;28;20049;-81
2023/02/28 13:10:54;;;;;;;9.00;8.10;;;7.80;99.90;;;;;;5012918;28;20026;-81